Time;durP1;ratioP1;P1;durP2;ratioP2;P2;SDS_P1;SDS_P2;PMS_P1;PMS_P2;Temp;Humidity;BMP_temperature;BMP_pressure;BME280_temperature;BME280_humidity;BME280_pressure;Samples;Min_cycle;Max_cycle;Signal;HPM_P1;HPM_P2
2023/02/20 00:01:55;;;;;;;7.03;2.90;;;;;;;6.00;100.00;97266.25;6186676;23;20012;-94
2023/02/20 00:04:22;;;;;;;11.00;3.50;;;;;;;6.07;100.00;97258.78;6156388;23;20016;-95
2023/02/20 00:06:48;;;;;;;8.33;3.60;;;;;;;6.07;100.00;97266.63;6160825;23;20042;-94
2023/02/20 00:09:13;;;;;;;6.50;3.00;;;;;;;6.01;100.00;97269.69;6213391;23;20004;-94
2023/02/20 00:11:39;;;;;;;12.60;4.67;;;;;;;5.98;100.00;97267.28;6205850;23;20023;-94
2023/02/20 00:14:46;;;;;;;11.97;3.97;;;;;;;5.96;100.00;97282.19;6176790;23;20005;-94
2023/02/20 00:17:12;;;;;;;11.50;3.83;;;;;;;6.00;100.00;97270.59;6232974;23;20100;-94
2023/02/20 00:19:38;;;;;;;10.10;3.47;;;;;;;6.02;100.00;97268.72;6210538;23;20045;-94
2023/02/20 00:22:03;;;;;;;10.73;3.47;;;;;;;6.08;100.00;97268.31;6237683;23;20012;-95
2023/02/20 00:24:29;;;;;;;8.23;3.57;;;;;;;6.07;100.00;97266.63;6199495;22;20004;-95
2023/02/20 00:27:08;;;;;;;7.57;3.47;;;;;;;6.10;100.00;97271.63;6222809;23;20013;-94
2023/02/20 00:29:34;;;;;;;10.03;3.73;;;;;;;6.14;100.00;97263.50;6205359;23;20074;-95
2023/02/20 00:32:01;;;;;;;11.27;3.97;;;;;;;6.12;100.00;97267.97;6204060;23;20270;-95
2023/02/20 00:34:28;;;;;;;9.47;3.83;;;;;;;6.10;100.00;97263.81;6208114;23;20455;-94
2023/02/20 00:36:53;;;;;;;8.83;3.20;;;;;;;6.08;100.00;97269.13;6194300;22;19997;-94
2023/02/20 00:39:19;;;;;;;8.33;3.50;;;;;;;6.09;100.00;97269.97;6207242;22;20059;-94
2023/02/20 00:41:45;;;;;;;11.27;3.50;;;;;;;6.07;100.00;97275.31;6175552;23;20016;-94
2023/02/20 00:44:11;;;;;;;10.03;3.67;;;;;;;6.02;100.00;97272.16;6177399;23;20004;-94
2023/02/20 00:46:37;;;;;;;12.07;3.20;;;;;;;6.02;100.00;97274.78;6177465;23;20090;-94
2023/02/20 00:49:03;;;;;;;11.90;3.87;;;;;;;5.97;100.00;97289.09;6175090;23;20099;-94
2023/02/20 00:51:45;;;;;;;13.37;3.47;;;;;;;5.94;100.00;97292.75;6180548;23;20012;-94
2023/02/20 00:54:11;;;;;;;8.53;3.80;;;;;;;5.93;100.00;97285.00;6179579;23;20015;-94
2023/02/20 00:56:42;;;;;;;13.93;5.00;;;;;;;5.85;100.00;97299.41;6181581;23;20071;-93
2023/02/20 00:59:07;;;;;;;9.30;3.80;;;;;;;5.87;100.00;97283.66;6208058;23;20039;-94
2023/02/20 01:01:47;;;;;;;9.17;3.20;;;;;;;5.94;100.00;97279.72;6176716;23;20012;-93
2023/02/20 01:04:13;;;;;;;10.57;3.50;;;;;;;5.87;100.00;97276.66;6180421;23;20008;-94
2023/02/20 01:06:41;;;;;;;10.13;3.80;;;;;;;5.91;100.00;97272.03;6182699;23;20012;-94
2023/02/20 01:09:06;;;;;;;9.73;4.30;;;;;;;5.96;100.00;97274.38;6230201;23;20016;-95
2023/02/20 01:11:32;;;;;;;10.20;3.60;;;;;;;5.94;100.00;97269.25;6183807;23;20013;-94
2023/02/20 01:13:58;;;;;;;10.53;3.90;;;;;;;5.90;100.00;97276.44;6183645;23;20467;-94
2023/02/20 01:16:31;;;;;;;10.97;3.87;;;;;;;5.87;100.00;97270.59;6184140;23;20047;-94
2023/02/20 01:18:57;;;;;;;10.25;4.13;;;;;;;5.82;100.00;97268.28;6183339;23;20058;-93
2023/02/20 01:21:23;;;;;;;8.40;3.47;;;;;;;5.77;100.00;97273.00;6236053;23;20020;-94
2023/02/20 01:23:48;;;;;;;8.40;3.83;;;;;;;5.81;100.00;97271.84;6186141;23;20013;-94
2023/02/20 01:26:14;;;;;;;12.00;6.13;;;;;;;5.80;100.00;97271.91;6179775;23;20475;-94
2023/02/20 01:28:44;;;;;;;10.53;3.87;;;;;;;5.76;100.00;97271.28;6177490;23;20090;-93
2023/02/20 01:31:10;;;;;;;8.97;3.83;;;;;;;5.80;100.00;97272.78;6181363;23;20004;-94
2023/02/20 01:33:43;;;;;;;12.63;4.87;;;;;;;5.75;100.00;97261.81;6176352;23;20032;-92
2023/02/20 01:36:10;;;;;;;10.40;3.63;;;;;;;5.85;100.00;97264.63;6197896;23;20099;-94
2023/02/20 01:38:38;;;;;;;9.90;4.07;;;;;;;5.80;100.00;97272.78;6197285;23;20027;-94
2023/02/20 01:41:04;;;;;;;11.07;3.80;;;;;;;5.77;100.00;97273.00;6172686;23;20087;-94
2023/02/20 01:43:30;;;;;;;9.67;3.93;;;;;;;5.77;100.00;97278.22;6200063;23;20085;-94
2023/02/20 01:46:39;;;;;;;9.90;3.93;;;;;;;5.83;100.00;97274.31;6174855;23;20353;-93
2023/02/20 01:49:13;;;;;;;9.53;4.10;;;;;;;5.85;100.00;97262.84;6198849;22;20009;-94
2023/02/20 01:52:06;;;;;;;10.23;3.90;;;;;;;5.78;100.00;97258.16;6182065;23;20075;-94
2023/02/20 01:54:34;;;;;;;8.80;3.97;;;;;;;5.79;100.00;97257.22;6199824;23;20023;-94
2023/02/20 01:57:03;;;;;;;8.20;3.80;;;;;;;5.82;100.00;97257.84;6178759;23;20439;-94
2023/02/20 01:59:35;;;;;;;9.30;3.83;;;;;;;5.77;100.00;97257.34;6175035;23;20023;-94
2023/02/20 02:02:01;;;;;;;10.43;4.10;;;;;;;5.81;100.00;97250.13;6201589;23;20244;-94
2023/02/20 02:04:38;;;;;;;8.87;3.37;;;;;;;5.86;100.00;97242.78;6174359;23;20008;-94
2023/02/20 02:07:04;;;;;;;10.00;4.30;;;;;;;5.84;100.00;97237.69;6204789;23;20021;-94
2023/02/20 02:09:41;;;;;;;13.37;4.03;;;;;;;5.81;100.00;97235.28;6256305;22;20035;-94
2023/02/20 02:12:07;;;;;;;10.97;4.20;;;;;;;5.79;100.00;97231.09;6215580;23;20016;-94
2023/02/20 02:14:33;;;;;;;9.40;3.67;;;;;;;5.77;100.00;97227.75;6236466;22;20390;-94
2023/02/20 02:17:20;;;;;;;13.23;4.97;;;;;;;5.78;100.00;97227.66;6269847;22;20018;-94
2023/02/20 02:20:13;;;;;;;10.60;3.83;;;;;;;5.78;100.00;97232.06;6227614;22;20134;-94
2023/02/20 02:23:03;;;;;;;10.27;4.15;;;;;;;5.76;100.00;97229.53;6213161;23;20066;-94
2023/02/20 02:28:56;;;;;;;14.23;4.30;;;;;;;5.78;100.00;97234.66;6235152;23;20012;-93
2023/02/20 02:32:00;;;;;;;7.63;3.47;;;;;;;5.80;100.00;97228.41;6237558;23;20439;-94
2023/02/20 02:35:00;;;;;;;9.70;4.35;;;;;;;5.77;100.00;97233.84;6236516;23;20095;-94
2023/02/20 02:37:44;;;;;;;10.87;3.97;;;;;;;5.77;100.00;97233.84;6210379;23;20012;-94
2023/02/20 02:40:29;;;;;;;;;;;;;;;5.83;100.00;97232.56;6214879;23;20043;-94
2023/02/20 02:43:01;;;;;;;12.47;4.20;;;;;;;5.76;100.00;97237.38;6221616;23;19911;-93
2023/02/20 02:45:34;;;;;;;9.90;3.80;;;;;;;5.76;100.00;97234.75;6213330;23;20019;-94
2023/02/20 02:48:15;;;;;;;10.97;4.00;;;;;;;5.73;100.00;97237.56;6239972;23;20443;-94
2023/02/20 02:50:46;;;;;;;7.30;3.33;;;;;;;5.74;100.00;97239.25;6265013;22;20008;-94
2023/02/20 02:53:13;;;;;;;8.60;3.30;;;;;;;5.72;100.00;97235.91;6266311;22;20019;-94
2023/02/20 02:55:39;;;;;;;12.47;4.10;;;;;;;5.73;100.00;97232.34;6269102;22;20019;-94
2023/02/20 02:58:45;;;;;;;8.57;3.87;;;;;;;5.65;100.00;97227.66;6269598;22;20019;-94
2023/02/20 03:01:12;;;;;;;7.30;3.23;;;;;;;5.66;100.00;97225.88;6218383;23;20016;-93
2023/02/20 03:04:13;;;;;;;8.77;3.43;;;;;;;5.65;100.00;97235.50;6244028;22;20012;-93
2023/02/20 03:06:45;;;;;;;6.60;3.30;;;;;;;5.60;100.00;97223.69;6242929;23;20027;-94
2023/02/20 03:09:34;;;;;;;9.07;4.20;;;;;;;5.60;100.00;97221.06;6245744;22;20335;-94
2023/02/20 03:12:01;;;;;;;7.93;3.93;;;;;;;5.54;100.00;97227.56;6270694;22;20016;-94
2023/02/20 03:17:36;;;;;;;6.35;2.95;;;;;;;5.35;100.00;97225.34;6245586;23;20078;-94
2023/02/20 03:20:38;;;;;;;7.87;3.37;;;;;;;5.29;100.00;97230.97;6220896;23;20023;-94
2023/02/20 03:23:09;;;;;;;7.80;3.40;;;;;;;5.29;100.00;97217.94;6218507;23;20020;-93
2023/02/20 03:25:39;;;;;;;12.90;5.30;;;;;;;5.23;100.00;97228.78;6240700;23;20015;-91
2023/02/20 03:28:55;;;;;;;9.60;3.77;;;;;;;5.18;100.00;97228.25;6230113;23;20012;-94
2023/02/20 03:31:35;;;;;;;8.93;3.10;;;;;;;5.14;100.00;97230.22;6219169;23;20201;-93
2023/02/20 03:44:05;;;;;;;6.70;3.30;;;;;;;4.87;100.00;97227.66;6246692;23;20016;-94
2023/02/20 03:47:27;;;;;;;9.87;3.63;;;;;;;4.80;100.00;97221.16;6271971;22;20091;-95
2023/02/20 03:49:55;;;;;;;10.77;3.87;;;;;;;4.77;100.00;97225.75;6245632;22;20095;-94
2023/02/20 03:52:22;;;;;;;11.63;3.60;;;;;;;4.73;100.00;97219.91;6271131;22;20054;-94
2023/02/20 03:54:50;;;;;;;11.27;4.10;;;;;;;4.76;100.00;97229.28;6271281;22;20023;-94
2023/02/20 03:57:27;;;;;;;9.27;3.47;;;;;;;4.68;100.00;97225.38;6252783;22;20004;-93
2023/02/20 04:00:03;;;;;;;13.40;4.25;;;;;;;4.59;100.00;97228.56;6238195;22;20550;-94
2023/02/20 04:05:59;;;;;;;7.30;3.97;;;;;;;4.66;100.00;97229.03;6244303;23;20463;-94
2023/02/20 04:08:47;;;;;;;7.90;3.37;;;;;;;4.65;100.00;97225.59;6269199;22;20454;-94
2023/02/20 04:11:27;;;;;;;8.60;3.70;;;;;;;4.66;100.00;97223.81;6244113;23;20016;-93
2023/02/20 04:17:54;;;;;;;9.73;4.27;;;;;;;4.52;100.00;97221.25;6244691;23;20040;-93
2023/02/20 04:20:21;;;;;;;9.37;3.70;;;;;;;4.47;100.00;97213.75;6268084;22;20031;-94
2023/02/20 04:23:13;;;;;;;8.63;3.40;;;;;;;4.49;100.00;97215.31;6269050;22;20098;-93
2023/02/20 04:26:16;;;;;;;9.90;3.83;;;;;;;4.44;100.00;97214.78;6275706;22;20012;-94
2023/02/20 04:28:47;;;;;;;5.93;3.23;;;;;;;4.41;100.00;97224.53;6167285;23;20415;-94
2023/02/20 04:31:22;;;;;;;13.73;3.70;;;;;;;4.45;100.00;97213.81;6274908;22;20018;-94
2023/02/20 04:33:49;;;;;;;9.93;3.60;;;;;;;4.48;100.00;97215.41;6246180;22;20047;-94
2023/02/20 04:36:20;;;;;;;9.93;3.60;;;;;;;4.53;100.00;97217.72;6242009;22;20404;-94
2023/02/20 04:38:52;;;;;;;9.63;3.60;;;;;;;4.58;100.00;97215.66;6267885;22;20011;-94
2023/02/20 04:41:23;;;;;;;11.10;5.97;;;;;;;4.64;100.00;97207.47;6239137;23;20011;-94
2023/02/20 04:43:49;;;;;;;8.07;3.97;;;;;;;4.61;100.00;97211.09;6242672;23;20431;-93
2023/02/20 04:46:15;;;;;;;9.47;4.73;;;;;;;4.66;100.00;97208.19;6267027;22;20016;-93
2023/02/20 04:48:41;;;;;;;5.97;3.77;;;;;;;4.69;100.00;97207.97;6240339;23;20188;-93
2023/02/20 04:51:07;;;;;;;13.70;4.03;;;;;;;4.68;100.00;97214.97;6217925;23;20015;-93
2023/02/20 04:53:33;;;;;;;11.80;4.43;;;;;;;4.66;100.00;97224.66;6245290;22;20011;-94
2023/02/20 04:56:38;;;;;;;10.63;4.47;;;;;;;4.66;100.00;97219.47;6243704;22;20432;-93
2023/02/20 04:59:06;;;;;;;11.90;4.23;;;;;;;4.69;100.00;97211.44;6218012;23;20027;-94
2023/02/20 05:01:50;;;;;;;11.60;4.27;;;;;;;4.72;100.00;97207.78;6266871;22;20012;-94
2023/02/20 05:04:18;;;;;;;10.87;3.80;;;;;;;4.70;100.00;97210.50;6240696;23;20015;-94
2023/02/20 05:06:54;;;;;;;13.27;4.90;;;;;;;4.76;100.00;97213.63;6216442;23;20091;-93
2023/02/20 05:09:20;;;;;;;13.87;3.97;;;;;;;4.73;100.00;97219.91;6240760;23;20022;-93
2023/02/20 05:11:46;;;;;;;11.10;4.00;;;;;;;4.68;100.00;97237.59;6215708;23;20020;-94
2023/02/20 05:14:13;;;;;;;8.80;3.87;;;;;;;4.63;100.00;97227.47;6214827;23;20007;-93
2023/02/20 05:16:40;;;;;;;10.90;3.87;;;;;;;4.68;100.00;97232.38;6214674;23;20008;-93
2023/02/20 05:19:06;;;;;;;7.43;3.60;;;;;;;4.69;100.00;97227.09;6213581;23;20044;-93
2023/02/20 05:24:21;;;;;;;9.83;3.63;;;;;;;4.61;100.00;97218.91;6243365;23;20019;-94
2023/02/20 05:26:47;;;;;;;11.23;3.73;;;;;;;4.60;100.00;97219.00;6248420;23;20043;-94
2023/02/20 05:29:13;;;;;;;10.43;3.50;;;;;;;4.64;100.00;97215.28;6245860;23;20003;-93
2023/02/20 05:32:11;;;;;;;8.90;3.40;;;;;;;4.61;100.00;97213.69;6216888;23;20012;-93
2023/02/20 05:34:36;;;;;;;9.73;3.30;;;;;;;4.62;100.00;97211.91;6185538;23;20046;-93
2023/02/20 05:37:25;;;;;;;10.73;3.87;;;;;;;4.58;100.00;97220.88;6215439;23;20015;-94
2023/02/20 05:39:57;;;;;;;12.13;3.90;;;;;;;4.57;100.00;97216.59;6253304;22;20162;-94
2023/02/20 05:42:23;;;;;;;7.67;3.37;;;;;;;4.52;100.00;97206.47;6260128;22;20004;-94
2023/02/20 05:45:03;;;;;;;11.17;4.67;;;;;;;4.50;100.00;97208.34;6217877;23;20038;-94
2023/02/20 05:47:28;;;;;;;10.73;3.80;;;;;;;4.50;100.00;97208.34;6271399;22;20020;-94
2023/02/20 05:50:19;;;;;;;10.63;4.17;;;;;;;4.45;100.00;97200.81;6238571;23;20026;-94
2023/02/20 05:52:45;;;;;;;9.53;3.30;;;;;;;4.45;100.00;97208.63;6232764;23;20021;-94
2023/02/20 05:55:11;;;;;;;10.33;3.93;;;;;;;4.39;100.00;97211.63;6221409;23;20837;-94
2023/02/20 05:57:37;;;;;;;8.67;3.67;;;;;;;4.43;100.00;97207.06;6246419;23;20031;-94
2023/02/20 06:00:03;;;;;;;8.43;3.70;;;;;;;4.53;100.00;97217.72;6237683;23;20012;-95
2023/02/20 06:02:37;;;;;;;9.60;4.20;;;;;;;4.44;100.00;97219.97;6250778;23;20024;-94
2023/02/20 06:08:50;;;;;;;8.80;4.10;;;;;;;4.34;100.00;97231.91;6271348;22;20083;-94
2023/02/20 06:11:15;;;;;;;7.67;3.67;;;;;;;4.31;100.00;97231.28;6227634;22;20035;-92
2023/02/20 06:17:07;;;;;;;12.13;4.60;;;;;;;4.29;100.00;97236.56;6258617;22;20025;-94
2023/02/20 06:19:33;;;;;;;8.77;3.50;;;;;;;4.27;100.00;97229.78;6231734;22;20023;-94
2023/02/20 06:25:46;;;;;;;9.57;3.87;;;;;;;4.34;100.00;97238.88;6283267;22;20018;-94
2023/02/20 06:28:11;;;;;;;12.53;4.13;;;;;;;4.37;100.00;97249.94;6260751;22;20011;-94
2023/02/20 06:30:46;;;;;;;13.30;4.27;;;;;;;4.31;100.00;97252.94;6234988;22;20003;-86
2023/02/20 06:37:01;;;;;;;6.43;3.30;;;;;;;4.39;100.00;97250.69;6285792;22;20018;-86
2023/02/20 06:39:28;;;;;;;8.83;4.10;;;;;;;4.44;100.00;97251.22;6249926;22;20015;-86
2023/02/20 06:41:54;;;;;;;9.07;3.60;;;;;;;4.51;100.00;97256.06;6248239;22;20045;-86
2023/02/20 06:44:29;;;;;;;8.40;3.23;;;;;;;4.53;100.00;97257.66;6224399;22;20008;-86
2023/02/20 06:46:55;;;;;;;14.43;4.20;;;;;;;4.62;100.00;97257.03;6225541;22;20015;-86
2023/02/20 06:49:21;;;;;;;12.53;4.27;;;;;;;4.66;100.00;97253.34;6225751;22;20014;-86
2023/02/20 06:51:47;;;;;;;7.90;3.43;;;;;;;4.70;100.00;97251.38;6223207;22;20098;-86
2023/02/20 06:54:21;;;;;;;10.93;3.50;;;;;;;4.75;100.00;97251.88;6275038;22;20019;-94
2023/02/20 06:56:52;;;;;;;11.33;4.03;;;;;;;4.77;100.00;97257.84;6289627;22;20012;-94
2023/02/20 06:59:17;;;;;;;8.67;3.73;;;;;;;4.81;100.00;97259.31;6290121;22;20012;-94
2023/02/20 07:02:39;;;;;;;14.07;4.20;;;;;;;4.82;100.00;97263.59;6263437;22;20097;-94
2023/02/20 07:05:09;;;;;;;7.97;3.77;;;;;;;4.82;100.00;97268.78;6263171;22;20057;-93
2023/02/20 07:07:34;;;;;;;8.53;3.97;;;;;;;4.86;100.00;97278.13;6261069;22;20045;-94
2023/02/20 07:10:00;;;;;;;10.20;4.03;;;;;;;4.95;100.00;97256.66;6260803;22;20004;-95
2023/02/20 07:12:30;;;;;;;9.07;3.57;;;;;;;4.99;100.00;97259.06;6245896;22;20007;-93
2023/02/20 07:14:56;;;;;;;9.20;3.33;;;;;;;5.01;100.00;97260.63;6247576;22;20011;-93
2023/02/20 07:17:22;;;;;;;9.03;4.40;;;;;;;5.17;100.00;97273.53;6301374;22;20014;-94
2023/02/20 07:19:50;;;;;;;9.50;4.00;;;;;;;5.25;100.00;97273.84;6243134;22;20022;-85
2023/02/20 07:22:16;;;;;;;9.57;4.03;;;;;;;5.44;100.00;97274.31;6228366;22;20118;-86
2023/02/20 07:24:42;;;;;;;8.17;3.57;;;;;;;5.46;100.00;97268.16;6223008;22;20047;-85
2023/02/20 07:27:09;;;;;;;9.63;3.90;;;;;;;5.61;100.00;97259.31;6247912;22;20022;-86
2023/02/20 07:29:40;;;;;;;7.40;3.57;;;;;;;5.66;100.00;97267.63;6222661;22;20011;-86
2023/02/20 07:32:07;;;;;;;8.90;3.40;;;;;;;5.58;100.00;97259.50;6222567;22;20019;-85
2023/02/20 07:34:33;;;;;;;11.17;3.90;;;;;;;5.52;100.00;97270.34;6223126;22;20067;-86
2023/02/20 07:37:08;;;;;;;8.67;3.47;;;;;;;5.58;100.00;97283.00;6222592;22;20050;-86
2023/02/20 07:39:34;;;;;;;11.50;4.00;;;;;;;5.67;100.00;97271.94;6247828;22;20078;-86
2023/02/20 07:42:00;;;;;;;10.40;4.53;;;;;;;5.94;100.00;97277.09;6223734;22;20046;-86
2023/02/20 07:44:48;;;;;;;9.30;3.70;;;;;;;5.95;100.00;97270.09;6250033;22;20006;-86
2023/02/20 07:47:14;;;;;;;8.60;3.00;;;;;;;5.93;100.00;97259.75;6244739;22;20095;-86
2023/02/20 07:49:40;;;;;;;10.53;3.80;;;;;;;6.02;100.00;97256.50;6250765;22;20022;-86
2023/02/20 07:52:06;;;;;;;7.17;3.30;;;;;;;6.13;100.00;97235.69;6222912;22;20024;-86
2023/02/20 07:54:31;;;;;;;8.90;3.10;;;;;;;6.40;100.00;97234.69;6222451;22;20012;-86
2023/02/20 07:56:57;;;;;;;8.80;3.77;;;;;;;6.55;100.00;97227.56;6226282;22;19999;-86
2023/02/20 07:59:23;;;;;;;10.83;4.37;;;;;;;7.39;100.00;97231.00;6229291;22;20046;-86
2023/02/20 08:01:51;;;;;;;9.37;4.00;;;;;;;7.92;100.00;97229.56;6224015;22;20015;-86
2023/02/20 08:04:17;;;;;;;8.77;3.50;;;;;;;8.38;100.00;97225.16;6273364;22;20093;-86
2023/02/20 08:06:44;;;;;;;8.93;3.53;;;;;;;8.74;100.00;97234.50;6222881;22;20312;-86
2023/02/20 08:09:27;;;;;;;7.10;3.30;;;;;;;9.14;100.00;97218.97;6248325;22;20011;-86
2023/02/20 08:12:07;;;;;;;9.25;3.00;;;;;;;9.57;100.00;97215.41;6255268;22;20012;-87
2023/02/20 08:14:38;;;;;;;13.03;5.57;;;;;;;9.36;100.00;97207.53;6233530;22;20012;-86
2023/02/20 08:17:06;;;;;;;9.33;3.50;;;;;;;8.66;100.00;97206.28;6260163;22;20031;-95
2023/02/20 08:19:32;;;;;;;9.63;3.87;;;;;;;8.17;100.00;97210.13;6228031;22;20039;-95
2023/02/20 08:21:58;;;;;;;7.47;2.80;;;;;;;9.17;100.00;97204.78;6259636;22;20095;-95
2023/02/20 08:24:26;;;;;;;8.27;3.67;;;;;;;9.56;100.00;97191.91;6230744;22;20285;-95
2023/02/20 08:26:51;;;;;;;8.53;3.73;;;;;;;9.90;100.00;97192.50;6230779;22;20008;-95
2023/02/20 08:29:17;;;;;;;8.10;3.00;;;;;;;10.03;100.00;97189.66;6230948;22;20545;-95
2023/02/20 08:31:43;;;;;;;8.63;3.27;;;;;;;9.55;100.00;97198.94;6232155;22;20015;-95
2023/02/20 08:34:08;;;;;;;8.23;3.33;;;;;;;9.86;100.00;97188.47;6231717;22;20011;-96
2023/02/20 08:36:34;;;;;;;8.67;3.27;;;;;;;9.63;100.00;97182.56;6229074;22;20015;-87
2023/02/20 08:39:01;;;;;;;8.50;3.50;;;;;;;9.49;100.00;97180.25;6222651;22;20038;-86
2023/02/20 08:41:31;;;;;;;9.97;4.43;;;;;;;8.93;100.00;97178.75;6222321;22;20015;-86
2023/02/20 08:44:04;;;;;;;8.63;3.10;;;;;;;8.90;100.00;97176.38;6223300;22;20019;-86
2023/02/20 08:46:37;;;;;;;5.60;2.20;;;;;;;8.94;100.00;97172.56;6237350;22;20015;-85
2023/02/20 08:49:09;;;;;;;9.30;2.60;;;;;;;8.93;100.00;97173.53;6224757;22;20007;-86
2023/02/20 08:51:35;;;;;;;5.97;2.50;;;;;;;9.08;100.00;97172.25;6219701;22;20014;-86
2023/02/20 08:54:03;;;;;;;8.00;2.53;;;;;;;9.18;100.00;97167.88;6245604;22;20018;-86
2023/02/20 08:56:47;;;;;;;7.60;2.70;;;;;;;9.65;100.00;97156.97;6221479;22;20103;-96
2023/02/20 08:59:15;;;;;;;6.70;2.43;;;;;;;10.05;100.00;97151.75;6231048;22;20063;-96
2023/02/20 09:02:30;;;;;;;8.67;2.50;;;;;;;10.59;100.00;97147.06;6230277;22;19996;-96
2023/02/20 09:04:57;;;;;;;6.33;2.63;;;;;;;11.67;100.00;97143.34;6223858;22;20022;-85
2023/02/20 09:07:24;;;;;;;4.97;2.33;;;;;;;12.24;100.00;97133.56;6251500;22;20431;-84
2023/02/20 09:09:50;;;;;;;8.53;2.77;;;;;;;11.83;100.00;97129.56;6245909;22;20565;-85
2023/02/20 09:12:16;;;;;;;5.70;2.07;;;;;;;12.75;100.00;97118.91;6271882;22;20043;-86
2023/02/20 09:14:42;;;;;;;5.93;2.00;;;;;;;12.59;100.00;97122.22;6246605;22;20011;-85
2023/02/20 09:17:08;;;;;;;9.13;2.20;;;;;;;12.39;100.00;97129.44;6276524;22;20441;-85
2023/02/20 09:19:34;;;;;;;6.33;2.37;;;;;;;12.31;100.00;97129.38;6247574;22;20019;-85
2023/02/20 09:22:01;;;;;;;6.73;2.30;;;;;;;12.71;100.00;97130.75;6271055;22;20012;-85
2023/02/20 09:24:30;;;;;;;6.10;2.30;;;;;;;13.02;100.00;97118.00;6221279;22;20016;-85
2023/02/20 09:26:56;;;;;;;10.43;2.60;;;;;;;12.19;100.00;97120.00;6273494;22;20023;-85
2023/02/20 09:29:22;;;;;;;8.97;2.57;;;;;;;12.21;100.00;97123.31;6246410;22;20148;-85
2023/02/20 09:31:49;;;;;;;7.10;2.20;;;;;;;12.37;100.00;97112.09;6219404;22;20031;-85
2023/02/20 09:38:03;;;;;;;7.50;2.70;;;;;;;12.56;100.00;97111.97;6291480;22;20094;-95
2023/02/20 09:40:32;;;;;;;4.50;2.00;;;;;;;12.76;100.00;97120.56;6236461;22;20011;-85
2023/02/20 09:43:14;;;;;;;6.00;2.17;;;;;;;12.77;100.00;97114.31;6225763;22;20015;-95
2023/02/20 09:46:05;;;;;;;4.57;1.70;;;;;;;13.12;100.00;97105.53;6267854;22;20022;-94
2023/02/20 09:49:02;;;;;;;5.13;1.90;;;;;;;13.24;100.00;97110.56;6259345;22;20094;-86
2023/02/20 09:51:31;;;;;;;11.33;3.63;;;;;;;12.84;100.00;97112.72;6276780;22;20011;-91
2023/02/20 09:54:11;;;;;;;7.77;2.70;;;;;;;13.37;100.00;97109.19;6262959;22;20011;-86
2023/02/20 09:57:08;;;;;;;10.83;2.20;;;;;;;13.39;100.00;97096.66;6262910;22;20019;-94
2023/02/20 10:00:19;;;;;;;5.63;1.90;;;;;;;12.66;100.00;97096.06;6250359;22;20431;-85
2023/02/20 10:03:33;;;;;;;5.73;2.30;;;;;;;12.24;100.00;97099.28;6228651;22;20080;-86
2023/02/20 10:06:39;;;;;;;5.97;2.33;;;;;;;11.25;100.00;97105.06;6138863;23;20039;-86
